Time;durP1;ratioP1;P1;durP2;ratioP2;P2;SDS_P1;SDS_P2;PMS_P1;PMS_P2;Temp;Humidity;BMP_temperature;BMP_pressure;BME280_temperature;BME280_humidity;BME280_pressure;Samples;Min_cycle;Max_cycle;Signal;HPM_P1;HPM_P2
2023/09/28 00:01:35;;;;;;;1999.90;999.90;;;10.80;97.00;;;;;;5030777;28;20391;-76
2023/09/28 00:04:01;;;;;;;1999.90;999.90;;;10.80;97.00;;;;;;5042131;28;20021;-74
2023/09/28 00:06:27;;;;;;;1999.90;999.90;;;10.80;97.10;;;;;;5033396;28;20285;-75
2023/09/28 00:08:53;;;;;;;1999.90;999.90;;;10.70;96.90;;;;;;5035961;28;20029;-74
2023/09/28 00:11:18;;;;;;;1999.90;999.90;;;10.60;96.90;;;;;;5014613;28;20033;-75
2023/09/28 00:13:44;;;;;;;1999.90;999.90;;;10.50;96.70;;;;;;5038068;28;20040;-75
2023/09/28 00:16:10;;;;;;;1999.90;999.90;;;10.50;96.80;;;;;;5033600;28;20032;-76
2023/09/28 00:18:36;;;;;;;1999.90;999.90;;;10.50;97.00;;;;;;5038334;28;20035;-75
2023/09/28 00:21:02;;;;;;;1999.90;999.90;;;10.50;97.10;;;;;;5030708;28;20034;-75
2023/09/28 00:23:28;;;;;;;1999.90;999.90;;;10.40;97.00;;;;;;5038555;28;20412;-75
2023/09/28 00:25:54;;;;;;;1999.90;999.90;;;10.40;97.00;;;;;;5035123;28;20503;-76
2023/09/28 00:28:20;;;;;;;1999.90;999.90;;;10.40;96.90;;;;;;5034245;28;20108;-76
2023/09/28 00:30:48;;;;;;;1999.90;999.90;;;10.30;96.90;;;;;;5031800;28;20124;-75
2023/09/28 00:33:14;;;;;;;1999.90;999.90;;;10.30;97.00;;;;;;5036243;28;20040;-75
2023/09/28 00:35:40;;;;;;;1999.90;999.90;;;10.30;96.90;;;;;;5035909;28;20026;-76
2023/09/28 00:38:06;;;;;;;1999.90;999.90;;;10.30;97.10;;;;;;5037894;28;20044;-75
2023/09/28 00:40:32;;;;;;;1999.90;999.90;;;10.40;97.20;;;;;;5034926;28;20048;-76
2023/09/28 00:42:59;;;;;;;1999.90;999.90;;;10.40;97.20;;;;;;5039310;28;20701;-74
2023/09/28 00:45:27;;;;;;;1999.90;999.90;;;10.40;97.30;;;;;;5038089;28;20037;-75
2023/09/28 00:47:59;;;;;;;1999.90;999.90;;;10.40;97.30;;;;;;5035726;28;20049;-75
2023/09/28 00:50:27;;;;;;;1999.90;999.90;;;10.30;97.20;;;;;;5034419;28;20030;-74
2023/09/28 00:52:57;;;;;;;1999.90;999.90;;;10.20;97.00;;;;;;5032768;28;20029;-75
2023/09/28 00:55:24;;;;;;;1999.90;999.90;;;10.30;97.30;;;;;;5036258;28;20040;-74
2023/09/28 00:57:50;;;;;;;1999.90;999.90;;;10.20;97.10;;;;;;5037632;28;20037;-74
2023/09/28 01:00:21;;;;;;;1999.90;999.90;;;10.20;97.30;;;;;;5032454;28;20091;-75
2023/09/28 01:02:51;;;;;;;1999.90;999.90;;;10.30;97.40;;;;;;5032654;28;20037;-74
2023/09/28 01:05:40;;;;;;;1999.90;999.90;;;10.30;97.60;;;;;;5032114;28;20442;-74
2023/09/28 01:08:18;;;;;;;1999.90;999.90;;;10.30;97.60;;;;;;5040503;28;20033;-75
2023/09/28 01:10:45;;;;;;;1999.90;999.90;;;10.40;97.80;;;;;;5041113;28;20036;-74
2023/09/28 01:13:12;;;;;;;1999.90;999.90;;;10.40;97.70;;;;;;5037190;28;20041;-76
2023/09/28 01:15:39;;;;;;;1999.90;999.90;;;10.30;97.60;;;;;;5034255;28;20033;-75
2023/09/28 01:18:09;;;;;;;1999.90;999.90;;;10.30;97.60;;;;;;5037868;28;20099;-75
2023/09/28 01:20:35;;;;;;;1999.90;999.90;;;10.30;97.70;;;;;;5037458;28;20124;-75
2023/09/28 01:23:05;;;;;;;1999.90;999.90;;;10.30;97.80;;;;;;5034948;28;20148;-74
2023/09/28 01:25:31;;;;;;;1999.90;999.90;;;10.20;97.70;;;;;;5036079;28;20044;-75
2023/09/28 01:27:57;;;;;;;1999.90;999.90;;;10.40;98.80;;;;;;5033117;28;20056;-75
2023/09/28 01:30:23;;;;;;;1999.90;999.90;;;10.60;98.70;;;;;;5035367;28;20041;-75
2023/09/28 01:32:49;;;;;;;1999.90;999.90;;;10.70;99.00;;;;;;5038177;28;20033;-74
2023/09/28 01:35:16;;;;;;;1999.90;999.90;;;10.70;99.00;;;;;;5028909;28;20036;-75
2023/09/28 01:38:06;;;;;;;1999.90;999.90;;;10.90;99.30;;;;;;5038016;28;20040;-75
2023/09/28 01:40:32;;;;;;;1999.90;999.90;;;10.90;99.20;;;;;;5040402;28;20033;-75
2023/09/28 01:42:57;;;;;;;1999.90;999.90;;;10.90;99.20;;;;;;5035877;28;20052;-76
2023/09/28 01:45:24;;;;;;;1999.90;999.90;;;10.90;99.20;;;;;;5040513;28;20043;-75
2023/09/28 01:47:50;;;;;;;1999.90;999.90;;;11.00;99.40;;;;;;5041866;28;20037;-74
2023/09/28 01:50:16;;;;;;;1999.90;999.90;;;10.90;99.20;;;;;;5043507;28;20025;-74
2023/09/28 01:52:41;;;;;;;1999.90;999.90;;;10.90;99.10;;;;;;5040464;28;20036;-73
2023/09/28 01:55:07;;;;;;;1999.90;999.90;;;10.90;99.20;;;;;;5040928;28;20149;-76
2023/09/28 01:57:33;;;;;;;1999.90;999.90;;;10.90;99.20;;;;;;5040529;28;20037;-74
2023/09/28 02:00:05;;;;;;;1999.90;999.90;;;10.90;99.20;;;;;;5038339;28;20033;-74
2023/09/28 02:02:34;;;;;;;1999.90;999.90;;;10.90;99.30;;;;;;5037468;28;20033;-74
2023/09/28 02:05:01;;;;;;;1999.90;999.90;;;11.10;99.60;;;;;;5038246;28;20056;-76
2023/09/28 02:07:26;;;;;;;1999.90;999.90;;;11.00;99.50;;;;;;5039017;28;20116;-74
2023/09/28 02:09:52;;;;;;;1999.90;999.90;;;11.00;99.50;;;;;;5044186;28;20593;-75
2023/09/28 02:12:17;;;;;;;1999.90;999.90;;;11.00;99.50;;;;;;5035525;28;20036;-76
2023/09/28 02:14:43;;;;;;;1999.90;999.90;;;11.00;99.40;;;;;;5038589;28;20025;-74
2023/09/28 02:17:09;;;;;;;1999.90;999.90;;;11.00;99.40;;;;;;5036097;28;20391;-76
2023/09/28 02:19:35;;;;;;;1999.90;999.90;;;11.00;99.40;;;;;;5042735;28;20071;-75
2023/09/28 02:22:02;;;;;;;1999.90;999.90;;;11.00;99.40;;;;;;5038984;28;20713;-75
2023/09/28 02:24:28;;;;;;;1999.90;999.90;;;10.90;99.40;;;;;;5036259;28;20045;-75
2023/09/28 02:26:54;;;;;;;1999.90;999.90;;;11.00;99.50;;;;;;5041424;28;20033;-75
2023/09/28 02:29:20;;;;;;;1999.90;999.90;;;10.90;99.40;;;;;;5034948;28;20430;-74
2023/09/28 02:31:46;;;;;;;1999.90;999.90;;;10.90;99.40;;;;;;5035526;28;20106;-75
2023/09/28 02:34:11;;;;;;;1999.90;999.90;;;10.90;99.40;;;;;;5042366;28;20083;-75
2023/09/28 02:36:37;;;;;;;1999.90;999.90;;;10.80;99.40;;;;;;5036704;28;20040;-74
2023/09/28 02:39:07;;;;;;;1999.90;999.90;;;10.90;99.40;;;;;;5040037;28;20487;-74
2023/09/28 02:41:33;;;;;;;1999.90;999.90;;;10.90;99.40;;;;;;5041477;28;20065;-75
2023/09/28 02:43:58;;;;;;;1999.90;999.90;;;10.90;99.40;;;;;;5041840;28;20310;-75
2023/09/28 02:46:27;;;;;;;1999.90;999.90;;;10.90;99.50;;;;;;5038673;28;20495;-74
2023/09/28 02:48:53;;;;;;;1999.90;999.90;;;10.90;99.50;;;;;;5034360;28;20038;-74
2023/09/28 02:51:18;;;;;;;1999.90;999.90;;;10.90;99.80;;;;;;5034115;28;20539;-74
2023/09/28 02:53:44;;;;;;;1999.90;999.90;;;10.90;99.40;;;;;;5042043;28;20800;-74
2023/09/28 02:56:12;;;;;;;1999.90;999.90;;;10.90;99.50;;;;;;5036725;28;20491;-75
2023/09/28 02:58:38;;;;;;;1999.90;999.90;;;10.90;99.40;;;;;;5036657;28;20040;-75
2023/09/28 03:01:04;;;;;;;1999.90;999.90;;;10.90;99.30;;;;;;5042307;28;20033;-74
2023/09/28 03:03:30;;;;;;;1999.90;999.90;;;10.90;99.40;;;;;;5041011;28;21148;-75
2023/09/28 03:05:56;;;;;;;1999.90;999.90;;;10.90;99.40;;;;;;5042161;28;20041;-75
2023/09/28 03:08:22;;;;;;;1999.90;999.90;;;10.90;99.40;;;;;;5037482;28;20037;-75
2023/09/28 03:10:48;;;;;;;1999.90;999.90;;;10.90;99.40;;;;;;5035861;28;20033;-75
2023/09/28 03:13:14;;;;;;;1999.90;999.90;;;10.90;99.40;;;;;;5037725;28;20063;-75
2023/09/28 03:15:44;;;;;;;1999.90;999.90;;;10.90;99.50;;;;;;5038925;28;20562;-77
2023/09/28 03:18:13;;;;;;;1999.90;999.90;;;11.00;99.50;;;;;;5035336;28;20040;-75
2023/09/28 03:20:43;;;;;;;1999.90;999.90;;;11.00;99.40;;;;;;5037966;28;20036;-75
2023/09/28 03:23:08;;;;;;;1999.90;999.90;;;11.10;99.50;;;;;;5042634;28;20020;-75
2023/09/28 03:25:34;;;;;;;1999.90;999.90;;;11.10;99.50;;;;;;5040261;28;20715;-75
2023/09/28 03:28:00;;;;;;;1999.90;999.90;;;11.20;99.50;;;;;;5037781;28;20116;-74
2023/09/28 03:30:26;;;;;;;1999.90;999.90;;;11.20;99.60;;;;;;5032540;28;20050;-74
2023/09/28 03:32:53;;;;;;;1999.90;999.90;;;11.20;99.60;;;;;;5041797;28;20052;-74
2023/09/28 03:35:20;;;;;;;1999.90;999.90;;;11.30;99.70;;;;;;5034766;28;20030;-74
2023/09/28 03:37:47;;;;;;;1999.90;999.90;;;11.30;99.80;;;;;;5035394;28;20032;-74
2023/09/28 03:40:14;;;;;;;1999.90;999.90;;;11.40;99.80;;;;;;5034770;28;20057;-75
2023/09/28 03:42:42;;;;;;;1999.90;999.90;;;11.40;99.70;;;;;;5044917;28;20552;-74
2023/09/28 03:45:09;;;;;;;1999.90;999.90;;;11.30;99.70;;;;;;5040377;28;20026;-74
2023/09/28 03:47:36;;;;;;;1999.90;999.90;;;11.40;99.80;;;;;;5036038;28;20060;-75
2023/09/28 03:50:02;;;;;;;1999.90;999.90;;;11.50;99.80;;;;;;5039260;28;20776;-74
2023/09/28 03:52:28;;;;;;;1999.90;999.90;;;11.40;99.70;;;;;;5035179;28;20060;-76
2023/09/28 03:54:54;;;;;;;1999.90;999.90;;;11.40;99.70;;;;;;5041203;28;20064;-75
2023/09/28 03:57:19;;;;;;;1999.90;999.90;;;11.50;99.70;;;;;;5033050;28;20072;-75
2023/09/28 03:59:45;;;;;;;1999.90;999.90;;;11.50;99.80;;;;;;5033950;28;20041;-75
2023/09/28 04:02:11;;;;;;;1999.90;999.90;;;11.50;99.80;;;;;;5043814;28;20037;-75
2023/09/28 04:04:37;;;;;;;1999.90;999.90;;;11.50;99.80;;;;;;5037538;28;20034;-76
2023/09/28 04:07:03;;;;;;;1999.90;999.90;;;11.50;99.80;;;;;;5042260;28;20466;-75
2023/09/28 04:09:29;;;;;;;1999.90;999.90;;;11.50;99.70;;;;;;5038650;28;20037;-75
2023/09/28 04:11:55;;;;;;;1999.90;999.90;;;11.50;99.70;;;;;;5034752;28;20037;-74
2023/09/28 04:14:22;;;;;;;1999.90;999.90;;;11.50;99.70;;;;;;5034226;28;20067;-74
2023/09/28 04:16:47;;;;;;;1999.90;999.90;;;11.50;99.90;;;;;;5033631;28;20527;-75
2023/09/28 04:19:13;;;;;;;1999.90;999.90;;;11.60;99.80;;;;;;5038401;28;20029;-75
2023/09/28 04:21:39;;;;;;;1999.90;999.90;;;11.60;99.80;;;;;;5034375;28;20124;-75
2023/09/28 04:24:05;;;;;;;1999.90;999.90;;;11.50;99.80;;;;;;5041291;28;20381;-74
2023/09/28 04:26:30;;;;;;;1999.90;999.90;;;11.50;99.80;;;;;;5039383;28;20114;-74
2023/09/28 04:28:56;;;;;;;1999.90;999.90;;;11.50;99.70;;;;;;5036376;28;20491;-75
2023/09/28 04:31:22;;;;;;;1999.90;999.90;;;11.50;99.80;;;;;;5039021;28;20049;-75
2023/09/28 04:33:47;;;;;;;1999.90;999.90;;;11.50;99.90;;;;;;5039257;28;20415;-74
2023/09/28 04:36:13;;;;;;;1999.90;999.90;;;11.50;99.70;;;;;;5036165;28;20037;-74
2023/09/28 04:38:40;;;;;;;1999.90;999.90;;;11.60;99.70;;;;;;5034693;28;20032;-74
2023/09/28 04:41:06;;;;;;;1999.90;999.90;;;11.50;99.70;;;;;;5038028;28;20702;-76
2023/09/28 04:43:32;;;;;;;1999.90;999.90;;;11.50;99.60;;;;;;5039618;28;20064;-75
2023/09/28 04:45:58;;;;;;;1999.90;999.90;;;11.50;99.70;;;;;;5039067;28;20040;-75
2023/09/28 04:48:24;;;;;;;1999.90;999.90;;;11.60;99.70;;;;;;5038536;28;20052;-76
2023/09/28 04:50:49;;;;;;;1999.90;999.90;;;11.70;99.70;;;;;;5034523;28;20037;-75
2023/09/28 04:53:16;;;;;;;1999.90;999.90;;;11.70;99.70;;;;;;5032814;28;20431;-75
2023/09/28 04:55:42;;;;;;;1999.90;999.90;;;11.70;99.60;;;;;;5068710;28;20036;-75
2023/09/28 04:58:07;;;;;;;1999.90;999.90;;;11.80;99.70;;;;;;5029222;28;20698;-75
2023/09/28 05:00:33;;;;;;;1999.90;999.90;;;11.80;99.60;;;;;;5030971;28;20034;-75
2023/09/28 05:03:01;;;;;;;1999.90;999.90;;;11.80;99.60;;;;;;5034485;28;20040;-75
2023/09/28 05:05:27;;;;;;;1999.90;999.90;;;11.90;99.60;;;;;;5035576;28;20033;-75
2023/09/28 05:07:53;;;;;;;1999.90;999.90;;;11.90;99.50;;;;;;5032253;28;20048;-74
2023/09/28 05:10:18;;;;;;;1999.90;999.90;;;11.90;99.40;;;;;;5032544;28;20028;-73
2023/09/28 05:12:44;;;;;;;1999.90;999.90;;;11.90;99.40;;;;;;5027195;28;20040;-73
2023/09/28 05:15:10;;;;;;;1999.90;999.90;;;11.80;99.30;;;;;;5032125;28;20044;-73
2023/09/28 05:17:35;;;;;;;1999.90;999.90;;;11.90;99.30;;;;;;5032744;28;20050;-73
2023/09/28 05:20:02;;;;;;;1999.90;999.90;;;11.90;99.20;;;;;;5035923;28;20076;-76
2023/09/28 05:22:27;;;;;;;1999.90;999.90;;;11.90;99.10;;;;;;5044185;28;20033;-77
2023/09/28 05:24:53;;;;;;;1999.90;999.90;;;11.90;99.10;;;;;;5031368;28;20040;-76
2023/09/28 05:27:19;;;;;;;1999.90;999.90;;;11.90;99.10;;;;;;5037511;28;20491;-78
2023/09/28 05:29:46;;;;;;;1999.90;999.90;;;12.00;99.10;;;;;;5037679;28;20032;-87
2023/09/28 05:32:12;;;;;;;1999.90;999.90;;;12.00;99.10;;;;;;5030616;28;20045;-80
2023/09/28 05:34:38;;;;;;;1999.90;999.90;;;12.00;99.10;;;;;;5037824;28;20025;-78
2023/09/28 05:37:04;;;;;;;1999.90;999.90;;;12.00;99.10;;;;;;5037569;28;20040;-80
2023/09/28 05:39:29;;;;;;;1999.90;999.90;;;12.00;99.00;;;;;;5038365;28;20051;-80
2023/09/28 05:41:56;;;;;;;1999.90;999.90;;;12.00;99.00;;;;;;5039635;28;20029;-79
2023/09/28 05:44:22;;;;;;;1999.90;999.90;;;12.00;99.00;;;;;;5041702;28;20018;-76
2023/09/28 05:46:48;;;;;;;1999.90;999.90;;;12.00;98.90;;;;;;5047661;28;20052;-80
2023/09/28 05:49:18;;;;;;;1999.90;999.90;;;12.10;98.90;;;;;;5037218;28;20033;-79
2023/09/28 05:51:44;;;;;;;1999.90;999.90;;;12.10;98.80;;;;;;5036997;28;20028;-79
2023/09/28 05:54:10;;;;;;;1999.90;999.90;;;12.10;98.60;;;;;;5034527;28;20029;-83
2023/09/28 05:56:35;;;;;;;1999.90;999.90;;;12.10;98.50;;;;;;5032536;28;20025;-81
2023/09/28 05:59:01;;;;;;;1999.90;999.90;;;12.10;98.50;;;;;;5037665;28;20128;-82
2023/09/28 06:01:31;;;;;;;1999.90;999.90;;;12.20;98.40;;;;;;5030674;28;20037;-81
2023/09/28 06:03:57;;;;;;;1999.90;999.90;;;12.20;98.40;;;;;;5039446;28;20029;-82
2023/09/28 06:06:23;;;;;;;1999.90;999.90;;;12.30;98.30;;;;;;5031302;28;20111;-80
2023/09/28 06:08:52;;;;;;;1999.90;999.90;;;12.30;98.20;;;;;;5039293;28;20045;-81
2023/09/28 06:11:19;;;;;;;1999.90;999.90;;;12.30;98.10;;;;;;5039893;28;20131;-80
2023/09/28 06:13:45;;;;;;;1999.90;999.90;;;12.30;98.00;;;;;;5045934;28;20035;-81
2023/09/28 06:16:13;;;;;;;1999.90;999.90;;;12.30;97.90;;;;;;5040956;28;20017;-78
2023/09/28 06:18:41;;;;;;;1999.90;999.90;;;12.30;97.90;;;;;;5038827;28;20036;-81
2023/09/28 06:21:23;;;;;;;1999.90;999.90;;;12.40;97.90;;;;;;5044955;28;20058;-81
2023/09/28 06:23:49;;;;;;;1999.90;999.90;;;12.40;97.70;;;;;;5034895;28;20508;-81
2023/09/28 06:26:15;;;;;;;1999.90;999.90;;;12.50;97.60;;;;;;5036977;28;20035;-80
2023/09/28 06:28:41;;;;;;;1999.90;999.90;;;12.50;97.50;;;;;;5037805;28;20048;-81
2023/09/28 06:31:07;;;;;;;1999.90;999.90;;;12.60;97.40;;;;;;5042577;28;20037;-80
2023/09/28 06:33:32;;;;;;;1999.90;999.90;;;12.60;97.30;;;;;;5042826;28;20051;-78
2023/09/28 06:35:58;;;;;;;1999.90;999.90;;;12.60;97.20;;;;;;5039289;28;20481;-82
2023/09/28 06:38:24;;;;;;;1999.90;999.90;;;12.70;97.10;;;;;;5036200;28;20041;-80
2023/09/28 06:40:49;;;;;;;1999.90;999.90;;;12.70;97.00;;;;;;5033477;28;20065;-81
2023/09/28 06:43:15;;;;;;;1999.90;999.90;;;12.80;97.00;;;;;;5038569;28;20099;-81
2023/09/28 06:45:42;;;;;;;1999.90;999.90;;;12.80;96.70;;;;;;5034915;28;20029;-81
2023/09/28 06:48:08;;;;;;;1999.90;999.90;;;12.90;96.60;;;;;;5037557;28;20067;-79
2023/09/28 06:50:39;;;;;;;1999.90;999.90;;;13.00;96.60;;;;;;5032603;28;20986;-82
2023/09/28 06:53:06;;;;;;;1999.90;999.90;;;13.00;96.40;;;;;;5035532;28;20048;-81
2023/09/28 06:55:32;;;;;;;1999.90;999.90;;;13.20;96.30;;;;;;5036893;28;20021;-78
2023/09/28 06:57:58;;;;;;;1999.90;999.90;;;13.30;96.20;;;;;;5040507;28;20095;-83
2023/09/28 07:00:23;;;;;;;1999.90;999.90;;;13.40;96.10;;;;;;5035721;28;20441;-80
2023/09/28 07:02:50;;;;;;;1999.90;999.90;;;13.50;96.00;;;;;;5043792;28;20037;-81
2023/09/28 07:05:17;;;;;;;1999.90;999.90;;;13.60;95.80;;;;;;5037699;28;20025;-81
2023/09/28 07:07:45;;;;;;;1999.90;999.90;;;13.70;95.40;;;;;;5041313;28;20033;-81
2023/09/28 07:10:11;;;;;;;1999.90;999.90;;;13.80;95.50;;;;;;5040586;28;20033;-81
2023/09/28 07:12:37;;;;;;;1999.90;999.90;;;14.00;95.40;;;;;;5039214;28;20033;-82
2023/09/28 07:15:06;;;;;;;1999.90;999.90;;;14.30;94.90;;;;;;5041855;28;20191;-80
2023/09/28 07:17:33;;;;;;;1999.90;999.90;;;14.40;94.00;;;;;;5038149;28;20107;-81
2023/09/28 07:19:59;;;;;;;1999.90;999.90;;;14.30;93.80;;;;;;5035620;28;20542;-80
2023/09/28 07:22:24;;;;;;;1999.90;999.90;;;14.40;93.70;;;;;;5040611;28;20033;-81
2023/09/28 07:24:50;;;;;;;1999.90;999.90;;;14.50;93.60;;;;;;5037415;28;20033;-79
2023/09/28 07:27:16;;;;;;;1999.90;999.90;;;14.70;92.80;;;;;;5044772;28;20101;-81
2023/09/28 07:29:42;;;;;;;1999.90;999.90;;;14.80;92.50;;;;;;5045526;28;20038;-81
2023/09/28 07:32:08;;;;;;;1999.90;999.90;;;15.00;92.20;;;;;;5038003;28;20045;-80
2023/09/28 07:34:34;;;;;;;1999.90;999.90;;;15.00;91.50;;;;;;5041676;28;20087;-81
2023/09/28 07:37:02;;;;;;;1999.90;999.90;;;15.00;91.30;;;;;;5042714;28;20048;-80
2023/09/28 07:39:27;;;;;;;1999.90;999.90;;;15.20;91.40;;;;;;5037598;28;20033;-81
2023/09/28 07:41:55;;;;;;;1999.90;999.90;;;15.30;91.30;;;;;;5041505;28;20037;-81
2023/09/28 07:44:21;;;;;;;1999.90;999.90;;;15.50;91.40;;;;;;5040515;28;20033;-80
2023/09/28 07:46:47;;;;;;;1999.90;999.90;;;15.60;91.30;;;;;;5041286;28;20029;-82
2023/09/28 07:49:14;;;;;;;1999.90;999.90;;;15.70;91.00;;;;;;5042000;28;20048;-80
2023/09/28 07:51:40;;;;;;;1999.90;999.90;;;15.80;91.00;;;;;;5039449;28;20107;-82
2023/09/28 07:54:06;;;;;;;1999.90;999.90;;;15.80;90.90;;;;;;5038516;28;20037;-80
2023/09/28 07:56:34;;;;;;;1999.90;999.90;;;16.00;91.30;;;;;;5033626;28;20506;-80
2023/09/28 07:59:00;;;;;;;1999.90;999.90;;;16.10;90.20;;;;;;5040214;28;20040;-80
2023/09/28 08:01:26;;;;;;;1999.90;999.90;;;16.20;90.50;;;;;;5041917;28;20697;-80
2023/09/28 08:03:52;;;;;;;1999.90;999.90;;;16.10;90.40;;;;;;5045910;28;20041;-82
2023/09/28 08:06:19;;;;;;;1999.90;999.90;;;16.20;90.40;;;;;;5039929;28;20087;-82
2023/09/28 08:08:45;;;;;;;1999.90;999.90;;;16.20;90.60;;;;;;5043776;28;20052;-80
2023/09/28 08:11:12;;;;;;;1999.90;999.90;;;16.10;90.80;;;;;;5051795;28;20025;-80
2023/09/28 08:13:39;;;;;;;1999.90;999.90;;;16.10;90.70;;;;;;5040642;28;20132;-80
2023/09/28 08:16:05;;;;;;;1999.90;999.90;;;16.10;90.50;;;;;;5037372;28;20068;-80
2023/09/28 08:18:32;;;;;;;1999.90;999.90;;;16.10;89.60;;;;;;5035854;28;20029;-84
2023/09/28 08:20:57;;;;;;;1999.90;999.90;;;16.10;88.10;;;;;;5039733;28;20033;-81
2023/09/28 08:23:23;;;;;;;1999.90;999.90;;;16.10;86.90;;;;;;5039909;28;20119;-83
2023/09/28 08:25:49;;;;;;;1999.90;999.90;;;16.10;87.00;;;;;;5040342;28;20065;-80
2023/09/28 08:28:14;;;;;;;1999.90;999.90;;;16.20;86.80;;;;;;5022317;28;20041;-81
2023/09/28 08:30:41;;;;;;;1999.90;999.90;;;16.30;84.30;;;;;;5036083;28;20045;-81
2023/09/28 08:33:07;;;;;;;1999.90;999.90;;;16.70;87.00;;;;;;5037401;28;20047;-80
2023/09/28 08:35:34;;;;;;;1999.90;999.90;;;16.80;83.90;;;;;;5039605;28;20708;-81
2023/09/28 08:38:00;;;;;;;1999.90;999.90;;;16.90;82.40;;;;;;5030081;28;20060;-79
2023/09/28 08:40:26;;;;;;;1999.90;999.90;;;17.20;84.30;;;;;;5040295;28;20495;-79
2023/09/28 08:42:56;;;;;;;1999.90;999.90;;;17.20;81.00;;;;;;5041995;28;20037;-79
2023/09/28 08:45:23;;;;;;;1999.90;999.90;;;17.20;80.20;;;;;;5035466;28;20643;-79
2023/09/28 08:47:50;;;;;;;1999.90;999.90;;;17.30;80.30;;;;;;5039632;28;20135;-80
2023/09/28 08:50:23;;;;;;;1999.90;999.90;;;17.50;80.60;;;;;;5043745;28;20034;-79
2023/09/28 08:52:53;;;;;;;1999.90;999.90;;;17.80;79.50;;;;;;5033827;28;20040;-79
2023/09/28 08:55:21;;;;;;;1999.90;999.90;;;18.00;78.40;;;;;;5039500;28;20029;-79
2023/09/28 08:57:46;;;;;;;1999.90;999.90;;;18.10;77.60;;;;;;5038023;28;20031;-80
2023/09/28 09:00:14;;;;;;;1999.90;999.90;;;18.00;74.20;;;;;;5037864;28;20037;-79
2023/09/28 09:02:43;;;;;;;1999.90;999.90;;;18.00;75.00;;;;;;5038394;28;20083;-79
2023/09/28 09:05:12;;;;;;;1999.90;999.90;;;18.10;75.50;;;;;;5035139;28;20035;-78
2023/09/28 09:07:38;;;;;;;1999.90;999.90;;;18.40;77.00;;;;;;5037794;28;20121;-78
2023/09/28 09:10:07;;;;;;;1999.90;999.90;;;18.50;75.50;;;;;;5034458;28;20427;-80
2023/09/28 09:12:34;;;;;;;1999.90;999.90;;;18.70;72.60;;;;;;5035448;28;20030;-79
2023/09/28 09:15:00;;;;;;;1999.90;999.90;;;18.90;74.30;;;;;;5036871;28;20710;-76
2023/09/28 09:17:35;;;;;;;1999.90;999.90;;;18.90;72.30;;;;;;5034838;28;20042;-78
2023/09/28 09:20:05;;;;;;;1999.90;999.90;;;19.00;72.10;;;;;;5030151;28;20080;-78
2023/09/28 09:22:30;;;;;;;1999.90;999.90;;;19.20;72.30;;;;;;5038360;28;20024;-79
2023/09/28 09:25:00;;;;;;;1999.90;999.90;;;19.10;72.30;;;;;;5036074;28;20067;-79
2023/09/28 09:27:30;;;;;;;1999.90;999.90;;;19.40;73.70;;;;;;5036315;28;20029;-76
2023/09/28 09:30:05;;;;;;;1999.90;999.90;;;19.40;71.50;;;;;;5038520;28;20044;-79
2023/09/28 09:32:31;;;;;;;1999.90;999.90;;;19.60;71.30;;;;;;5021250;28;20028;-79
2023/09/28 09:34:57;;;;;;;1999.90;999.90;;;19.90;72.30;;;;;;5033506;28;20049;-76
2023/09/28 09:37:23;;;;;;;1999.90;999.90;;;19.80;70.50;;;;;;5021686;28;20083;-77
2023/09/28 09:39:49;;;;;;;1999.90;999.90;;;20.00;69.50;;;;;;5035618;28;20099;-76
2023/09/28 09:42:25;;;;;;;1999.90;999.90;;;20.10;67.80;;;;;;5031960;28;20041;-76
2023/09/28 09:44:52;;;;;;;1999.90;999.90;;;20.20;70.00;;;;;;5036135;28;20053;-78
2023/09/28 09:47:19;;;;;;;1999.90;999.90;;;20.40;70.40;;;;;;5041125;28;20387;-76
2023/09/28 09:49:50;;;;;;;1999.90;999.90;;;20.50;67.80;;;;;;5034085;28;20025;-79
2023/09/28 09:52:19;;;;;;;1999.90;999.90;;;20.60;68.20;;;;;;5040766;28;20035;-76
2023/09/28 09:54:46;;;;;;;1999.90;999.90;;;20.80;67.50;;;;;;5038249;28;20040;-76
2023/09/28 09:57:16;;;;;;;1999.90;999.90;;;21.10;68.30;;;;;;5035908;28;20587;-76
2023/09/28 09:59:48;;;;;;;1999.90;999.90;;;20.70;64.70;;;;;;5029657;28;20040;-76
2023/09/28 10:02:29;;;;;;;1999.90;999.90;;;20.20;68.40;;;;;;5039293;28;20060;-76
2023/09/28 10:04:55;;;;;;;1999.90;999.90;;;20.10;70.00;;;;;;5039180;28;20029;-77
2023/09/28 10:07:33;;;;;;;1999.90;999.90;;;20.20;70.80;;;;;;5034326;28;20483;-76
2023/09/28 10:09:59;;;;;;;1999.90;999.90;;;20.40;69.70;;;;;;5033458;28;20048;-76
2023/09/28 10:12:29;;;;;;;1999.90;999.90;;;20.60;68.90;;;;;;5040111;28;20021;-76
2023/09/28 10:14:56;;;;;;;;;;;21.10;69.30;;;;;;5034106;28;20086;-77
2023/09/28 10:17:28;;;;;;;1999.90;999.90;;;21.30;67.50;;;;;;5038390;28;19975;-76
2023/09/28 10:19:58;;;;;;;1999.90;999.90;;;21.40;67.50;;;;;;5035080;28;20067;-76
2023/09/28 10:22:24;;;;;;;1999.90;999.90;;;21.70;64.50;;;;;;5035952;28;20483;-76
2023/09/28 10:24:50;;;;;;;1999.90;999.90;;;21.70;63.80;;;;;;5041119;28;20045;-76
2023/09/28 10:27:17;;;;;;;1999.90;999.90;;;21.90;63.70;;;;;;5032718;28;20675;-75
2023/09/28 10:29:43;;;;;;;1999.90;999.90;;;22.30;68.30;;;;;;5036149;28;20488;-76
2023/09/28 10:32:30;;;;;;;1999.90;999.90;;;22.40;62.10;;;;;;5033960;28;20080;-76
2023/09/28 10:35:28;;;;;;;1999.90;999.90;;;22.50;58.00;;;;;;5015362;28;20032;-75
2023/09/28 10:38:17;;;;;;;1999.90;999.90;;;22.80;62.20;;;;;;5018211;28;20063;-76
2023/09/28 10:40:47;;;;;;;1999.90;999.90;;;23.10;59.90;;;;;;5036813;28;20054;-75
2023/09/28 10:43:33;;;;;;;1999.90;999.90;;;23.40;57.30;;;;;;5039543;28;21222;-75
2023/09/28 10:46:03;;;;;;;1999.90;999.90;;;23.70;58.40;;;;;;5049778;28;20029;-76
2023/09/28 10:48:41;;;;;;;1999.90;999.90;;;23.90;56.80;;;;;;5036149;28;20476;-75
2023/09/28 10:51:11;;;;;;;1999.90;999.90;;;24.40;56.60;;;;;;5039495;28;20029;-76
2023/09/28 10:53:37;;;;;;;1999.90;999.90;;;25.00;55.10;;;;;;5034700;28;20029;-75
2023/09/28 10:56:05;;;;;;;1999.90;999.90;;;25.00;51.70;;;;;;5028639;28;20045;-76
2023/09/28 10:58:33;;;;;;;1999.90;999.90;;;25.00;53.50;;;;;;5041654;28;20033;-76
2023/09/28 11:01:05;;;;;;;1999.90;999.90;;;25.50;51.20;;;;;;5042532;28;20044;-76
2023/09/28 11:03:34;;;;;;;1999.90;999.90;;;25.90;51.80;;;;;;5037189;28;20037;-77
2023/09/28 11:06:04;;;;;;;1999.90;999.90;;;26.30;47.80;;;;;;5041764;28;20102;-78
2023/09/28 11:08:32;;;;;;;1999.90;999.90;;;26.30;48.70;;;;;;5033237;28;20036;-78
2023/09/28 11:11:01;;;;;;;1999.90;999.90;;;25.90;51.70;;;;;;5036902;28;20040;-78
2023/09/28 11:13:27;;;;;;;1999.90;999.90;;;25.50;50.30;;;;;;5036411;28;20026;-78
2023/09/28 11:15:53;;;;;;;1999.90;999.90;;;24.90;54.00;;;;;;5040214;28;20040;-78
2023/09/28 11:18:23;;;;;;;1999.90;999.90;;;24.20;54.70;;;;;;5042021;28;20040;-78
2023/09/28 11:20:49;;;;;;;1999.90;999.90;;;24.40;53.10;;;;;;5039015;28;20033;-75
2023/09/28 11:23:15;;;;;;;1999.90;999.90;;;24.20;53.20;;;;;;5043137;28;20048;-76
2023/09/28 11:25:42;;;;;;;1999.90;999.90;;;24.40;48.20;;;;;;5045086;28;20163;-76
2023/09/28 11:28:09;;;;;;;1999.90;999.90;;;24.70;51.10;;;;;;5037373;28;20508;-76
2023/09/28 11:30:35;;;;;;;1999.90;999.90;;;25.40;45.00;;;;;;5039204;28;20088;-76
2023/09/28 11:33:04;;;;;;;1999.90;999.90;;;26.00;45.20;;;;;;5038359;28;20684;-78
2023/09/28 11:35:31;;;;;;;1999.90;999.90;;;27.10;42.60;;;;;;5035076;28;20400;-78
2023/09/28 11:38:02;;;;;;;1999.90;999.90;;;27.20;40.30;;;;;;5043977;28;20048;-78
2023/09/28 11:40:29;;;;;;;1999.90;999.90;;;27.30;36.80;;;;;;5036262;28;20082;-78
2023/09/28 11:42:57;;;;;;;1999.90;999.90;;;28.10;39.00;;;;;;5037565;28;20026;-78
2023/09/28 11:45:28;;;;;;;1999.90;999.90;;;28.80;34.80;;;;;;5034891;28;20052;-78
2023/09/28 11:47:53;;;;;;;1999.90;999.90;;;28.70;34.10;;;;;;5037236;28;20025;-78
2023/09/28 11:50:19;;;;;;;1999.90;999.90;;;29.00;32.00;;;;;;5038059;28;20036;-79
2023/09/28 11:52:46;;;;;;;1999.90;999.90;;;28.70;30.70;;;;;;5035822;28;20033;-78
2023/09/28 11:55:14;;;;;;;1999.90;999.90;;;29.20;34.50;;;;;;5043557;28;20090;-78
2023/09/28 11:57:43;;;;;;;1999.90;999.90;;;30.40;29.80;;;;;;5039810;28;20041;-78
2023/09/28 12:00:17;;;;;;;1999.90;999.90;;;29.80;26.90;;;;;;5063448;28;20522;-78